createdAt,value
2022-11-27T00:03:08.258Z,89.69
2022-11-27T00:06:32.396Z,89.59
2022-11-27T00:09:54.125Z,89.83
2022-11-27T00:13:16.273Z,89.35
2022-11-27T00:16:38.101Z,90.05
2022-11-27T00:20:00.198Z,89.98
2022-11-27T00:23:23.424Z,89.68
2022-11-27T00:26:46.854Z,89.74
2022-11-27T00:30:10.250Z,89.90
2022-11-27T00:33:32.390Z,90.17
2022-11-27T00:36:54.692Z,90.37
2022-11-27T00:40:18.058Z,89.61
2022-11-27T00:43:44.632Z,89.70
2022-11-27T00:47:06.799Z,89.96
2022-11-27T00:50:31.792Z,89.91
2022-11-27T00:53:54.455Z,89.94
2022-11-27T00:57:17.809Z,89.77
2022-11-27T01:00:39.654Z,89.77
2022-11-27T01:04:02.859Z,90.13
2022-11-27T01:07:25.091Z,89.98
2022-11-27T01:10:54.731Z,90.04
2022-11-27T01:14:19.610Z,90.14
2022-11-27T01:17:41.736Z,90.43
2022-11-27T01:21:04.004Z,90.14
2022-11-27T01:24:26.159Z,90.17
2022-11-27T01:27:50.310Z,89.95
2022-11-27T01:31:16.767Z,90.41
2022-11-27T01:34:39.077Z,89.70
2022-11-27T01:38:01.131Z,90.08
2022-11-27T01:41:26.127Z,89.86
2022-11-27T01:44:54.515Z,89.97
2022-11-27T01:48:17.937Z,90.01
2022-11-27T01:51:43.241Z,90.22
2022-11-27T01:55:09.904Z,90.21
2022-11-27T01:58:33.205Z,89.99
2022-11-27T02:01:55.276Z,90.32
2022-11-27T02:05:22.131Z,90.17
2022-11-27T02:08:44.296Z,90.60
2022-11-27T02:12:16.916Z,89.82
2022-11-27T02:15:45.570Z,89.92
2022-11-27T02:19:15.600Z,90.26
2022-11-27T02:22:59.228Z,90.20
2022-11-27T02:26:57.475Z,89.94
2022-11-27T02:30:21.285Z,89.64
2022-11-27T02:33:51.554Z,89.81
2022-11-27T02:37:18.520Z,90.42
2022-11-27T02:40:46.422Z,89.60
2022-11-27T02:44:10.917Z,89.41
2022-11-27T02:47:34.902Z,89.68
2022-11-27T02:50:57.816Z,89.67
2022-11-27T02:54:27.746Z,89.49
2022-11-27T02:57:52.078Z,89.67
2022-11-27T03:01:16.792Z,89.69
2022-11-27T03:04:48.770Z,89.55
2022-11-27T03:08:19.223Z,89.46
2022-11-27T03:11:41.091Z,89.35
2022-11-27T03:15:02.868Z,89.13
2022-11-27T03:18:35.901Z,89.38
2022-11-27T03:22:02.104Z,89.23
2022-11-27T03:25:24.631Z,89.78
2022-11-27T03:28:48.304Z,89.67
2022-11-27T03:32:10.911Z,88.76
2022-11-27T03:35:32.687Z,89.02
2022-11-27T03:38:56.726Z,89.41
2022-11-27T03:42:28.097Z,88.99
2022-11-27T03:45:57.726Z,89.29
2022-11-27T03:49:29.947Z,89.56
2022-11-27T03:53:01.728Z,89.32
2022-11-27T03:56:33.216Z,89.30
2022-11-27T04:00:00.402Z,89.19
2022-11-27T04:03:28.348Z,89.76
2022-11-27T04:06:50.102Z,89.61
2022-11-27T04:10:13.098Z,89.87
2022-11-27T04:13:37.165Z,90.06
2022-11-27T04:16:59.046Z,89.47
2022-11-27T04:20:21.206Z,89.75
2022-11-27T04:23:46.027Z,89.50
2022-11-27T04:27:07.848Z,89.60
2022-11-27T04:30:31.390Z,89.61
2022-11-27T04:33:53.169Z,90.21
2022-11-27T04:37:14.924Z,89.10
2022-11-27T04:40:36.955Z,90.20
2022-11-27T04:43:58.729Z,89.69
2022-11-27T04:47:22.493Z,89.88
2022-11-27T04:50:44.755Z,89.65
2022-11-27T04:54:06.736Z,89.87
2022-11-27T04:57:28.458Z,89.71
2022-11-27T05:00:50.058Z,89.21
2022-11-27T05:04:13.572Z,89.99
2022-11-27T05:07:35.533Z,89.79
2022-11-27T05:11:02.669Z,89.68
2022-11-27T05:14:29.310Z,89.52
2022-11-27T05:17:51.296Z,89.59
2022-11-27T05:21:14.395Z,89.58
2022-11-27T05:24:37.331Z,89.80
2022-11-27T05:27:59.051Z,89.89
2022-11-27T05:31:21.041Z,89.60
2022-11-27T05:34:43.090Z,89.52
2022-11-27T05:38:07.433Z,89.46
2022-11-27T05:41:29.663Z,89.77
2022-11-27T05:44:56.696Z,89.74
2022-11-27T05:48:20.310Z,89.84
2022-11-27T05:51:50.978Z,89.52
2022-11-27T05:55:15.035Z,90.21
2022-11-27T05:58:37.621Z,89.95
2022-11-27T06:01:59.661Z,90.34
2022-11-27T06:05:21.859Z,89.41
2022-11-27T06:08:44.754Z,89.62
2022-11-27T06:12:09.029Z,90.26
2022-11-27T06:15:31.088Z,90.02
2022-11-27T06:18:57.640Z,89.89
2022-11-27T06:22:19.874Z,90.25
2022-11-27T06:25:41.874Z,89.88
2022-11-27T06:29:05.499Z,89.67
2022-11-27T06:32:27.207Z,89.79
2022-11-27T06:35:48.693Z,89.67
2022-11-27T06:39:12.529Z,89.72
2022-11-27T06:42:34.207Z,89.51
2022-11-27T06:46:01.680Z,89.57
2022-11-27T06:49:24.130Z,89.83
2022-11-27T06:52:46.380Z,89.52
2022-11-27T06:56:12.503Z,89.20
2022-11-27T06:59:34.571Z,89.36
2022-11-27T07:02:57.925Z,89.79
2022-11-27T07:06:21.073Z,89.62
2022-11-27T07:09:42.900Z,89.40
2022-11-27T07:13:05.038Z,89.28
2022-11-27T07:16:27.664Z,89.08
2022-11-27T07:19:50.860Z,88.53
2022-11-27T07:23:12.680Z,88.68
2022-11-27T07:26:34.348Z,88.73
2022-11-27T07:29:55.961Z,88.20
2022-11-27T07:33:18.143Z,88.13
2022-11-27T07:36:41.491Z,88.63
2022-11-27T07:40:03.927Z,88.47
2022-11-27T07:43:25.907Z,87.76
2022-11-27T07:46:48.084Z,88.39
2022-11-27T07:50:11.063Z,87.56
2022-11-27T07:53:36.653Z,87.60
2022-11-27T07:56:58.740Z,88.21
2022-11-27T08:00:22.073Z,88.00
2022-11-27T08:03:45.415Z,88.08
2022-11-27T08:07:07.618Z,88.00
2022-11-27T08:10:36.643Z,87.96
2022-11-27T08:14:00.819Z,87.35
2022-11-27T08:17:25.616Z,87.42
2022-11-27T08:20:47.749Z,87.67
2022-11-27T08:24:10.150Z,87.76
2022-11-27T08:27:34.645Z,87.37
2022-11-27T08:31:00.168Z,87.50
2022-11-27T08:34:22.157Z,87.54
2022-11-27T08:37:44.335Z,87.36
2022-11-27T08:41:08.322Z,86.83
2022-11-27T08:44:31.565Z,86.71
2022-11-27T08:47:53.522Z,86.49
2022-11-27T08:51:16.856Z,86.61
2022-11-27T08:54:39.091Z,87.23
2022-11-27T08:58:01.395Z,87.24
2022-11-27T09:01:29.312Z,87.10
2022-11-27T09:04:51.147Z,86.46
2022-11-27T09:08:16.731Z,86.32
2022-11-27T09:11:38.642Z,86.09
2022-11-27T09:15:00.818Z,85.89
2022-11-27T09:18:24.166Z,85.88
2022-11-27T09:21:47.019Z,86.00
2022-11-27T09:25:10.346Z,86.05
2022-11-27T09:28:33.856Z,86.06
2022-11-27T09:31:55.733Z,85.81
2022-11-27T09:35:19.291Z,86.01
2022-11-27T09:38:42.547Z,85.78
2022-11-27T09:42:09.822Z,85.79
2022-11-27T09:45:32.441Z,85.79
2022-11-27T09:48:57.004Z,85.99
2022-11-27T09:52:25.715Z,85.68
2022-11-27T09:55:50.969Z,85.84
2022-11-27T09:59:17.914Z,87.53
2022-11-27T10:02:41.898Z,86.04
2022-11-27T10:06:16.833Z,86.03
2022-11-27T10:09:56.003Z,85.73
2022-11-27T10:13:33.632Z,85.24
2022-11-27T10:17:01.095Z,86.08
2022-11-27T10:20:29.888Z,85.45
2022-11-27T10:24:00.450Z,85.59
2022-11-27T10:27:30.714Z,86.07
2022-11-27T10:30:57.079Z,85.60
2022-11-27T10:34:31.551Z,85.86
2022-11-27T10:38:00.993Z,85.81
2022-11-27T10:45:26.067Z,85.80
2022-11-27T10:48:48.753Z,85.70
2022-11-27T10:52:15.406Z,85.91
2022-11-27T10:55:51.898Z,85.74
2022-11-27T10:59:17.434Z,85.98
2022-11-27T11:02:41.148Z,86.25
2022-11-27T11:06:20.693Z,86.13
2022-11-27T11:09:48.742Z,86.49
2022-11-27T11:13:18.939Z,86.55
2022-11-27T11:16:44.764Z,86.29
2022-11-27T11:20:20.333Z,85.94
2022-11-27T11:23:42.579Z,85.90
2022-11-27T11:27:08.400Z,86.17
2022-11-27T11:30:32.167Z,86.57
2022-11-27T11:33:57.766Z,86.44
2022-11-27T11:37:24.656Z,86.20
2022-11-27T11:41:00.582Z,86.74
2022-11-27T11:44:27.298Z,86.25
2022-11-27T11:47:51.429Z,87.01
2022-11-27T11:51:29.267Z,87.29
2022-11-27T11:55:00.179Z,86.69
2022-11-27T11:58:38.361Z,86.64
2022-11-27T12:02:30.450Z,86.64
2022-11-27T12:06:07.305Z,86.90
2022-11-27T12:09:43.720Z,86.79
2022-11-27T12:13:22.244Z,86.90
2022-11-27T12:17:01.799Z,86.76
2022-11-27T12:20:33.550Z,86.43
2022-11-27T12:24:11.096Z,87.29
2022-11-27T12:27:44.255Z,87.38
2022-11-27T12:31:15.071Z,87.15
2022-11-27T12:34:47.424Z,87.65
2022-11-27T12:38:21.255Z,87.46
2022-11-27T12:42:10.187Z,87.69
2022-11-27T12:45:38.854Z,87.61
2022-11-27T12:49:07.186Z,87.70
2022-11-27T12:52:34.902Z,87.73
2022-11-27T12:56:04.885Z,87.83
2022-11-27T12:59:33.874Z,87.97
2022-11-27T13:03:05.861Z,87.85
2022-11-27T13:06:32.748Z,88.11
2022-11-27T13:10:04.071Z,88.05
2022-11-27T13:13:31.566Z,88.13
2022-11-27T13:16:57.915Z,88.28
2022-11-27T13:20:25.767Z,88.59
2022-11-27T13:23:49.443Z,88.66
2022-11-27T13:27:17.280Z,88.44
2022-11-27T13:30:40.019Z,88.52
2022-11-27T13:34:05.885Z,88.83
2022-11-27T13:37:31.819Z,88.94
2022-11-27T13:40:57.716Z,88.98
2022-11-27T13:44:26.448Z,89.21
2022-11-27T13:47:49.215Z,89.27
2022-11-27T13:51:12.653Z,89.38
2022-11-27T13:54:34.713Z,89.17
2022-11-27T13:57:59.515Z,89.46
2022-11-27T14:01:24.474Z,89.56
2022-11-27T14:04:56.483Z,89.69
2022-11-27T14:08:20.793Z,89.73
2022-11-27T14:11:45.850Z,89.57
2022-11-27T14:15:11.843Z,89.94
2022-11-27T14:18:34.714Z,89.87
2022-11-27T14:21:56.956Z,90.14
2022-11-27T14:25:22.665Z,89.97
2022-11-27T14:28:46.796Z,90.16
2022-11-27T14:32:14.717Z,90.17
2022-11-27T14:35:36.687Z,90.15
2022-11-27T14:38:58.873Z,90.30
2022-11-27T14:42:28.152Z,90.30
2022-11-27T14:45:54.239Z,90.44
2022-11-27T14:49:20.222Z,90.21
2022-11-27T14:52:43.728Z,90.51
2022-11-27T14:56:06.782Z,90.54
2022-11-27T14:59:29.031Z,90.56
2022-11-27T15:02:52.223Z,90.89
2022-11-27T15:06:21.222Z,90.88
2022-11-27T15:09:46.493Z,90.47
2022-11-27T15:13:21.069Z,90.96
2022-11-27T15:16:47.565Z,90.88
2022-11-27T15:20:16.729Z,90.86
2022-11-27T15:23:46.139Z,90.96
2022-11-27T15:27:29.438Z,90.97
2022-11-27T15:30:52.398Z,90.90
2022-11-27T15:34:24.503Z,90.89
2022-11-27T15:37:46.446Z,91.35
2022-11-27T15:41:22.192Z,91.44
2022-11-27T15:45:11.147Z,91.40
2022-11-27T15:48:33.096Z,91.47
2022-11-27T15:51:55.911Z,91.55
2022-11-27T15:55:17.797Z,91.71
2022-11-27T15:58:41.806Z,91.65
2022-11-27T16:02:04.082Z,91.75
2022-11-27T16:05:25.999Z,91.78
2022-11-27T16:08:48.341Z,91.59
2022-11-27T16:12:10.093Z,91.91
2022-11-27T16:15:33.761Z,91.81
2022-11-27T16:18:59.784Z,91.95
2022-11-27T16:22:21.998Z,92.17
2022-11-27T16:25:43.833Z,92.30
2022-11-27T16:29:05.619Z,92.10
2022-11-27T16:32:29.212Z,92.19
2022-11-27T16:35:51.181Z,92.23
2022-11-27T16:39:13.527Z,92.42
2022-11-27T16:42:35.597Z,92.21
2022-11-27T16:46:06.841Z,92.28
2022-11-27T16:49:32.424Z,92.34
2022-11-27T16:52:55.598Z,92.51
2022-11-27T16:56:20.096Z,92.57
2022-11-27T16:59:42.225Z,92.36
2022-11-27T17:03:04.257Z,92.62
2022-11-27T17:06:29.119Z,92.71
2022-11-27T17:09:51.167Z,92.96
2022-11-27T17:13:13.198Z,92.93
2022-11-27T17:16:36.119Z,92.62
2022-11-27T17:20:00.571Z,92.88
2022-11-27T17:23:24.052Z,92.85
2022-11-27T17:26:47.372Z,92.80
2022-11-27T17:30:10.491Z,92.83
2022-11-27T17:33:32.194Z,92.89
2022-11-27T17:36:57.593Z,92.73
2022-11-27T17:40:20.971Z,92.85
2022-11-27T17:43:43.647Z,92.87
2022-11-27T17:47:05.841Z,92.56
2022-11-27T17:50:27.808Z,92.80
2022-11-27T17:53:50.551Z,92.87
2022-11-27T17:57:13.918Z,92.97
2022-11-27T18:00:36.053Z,93.02
2022-11-27T18:04:01.411Z,93.15
2022-11-27T18:07:23.652Z,93.18
2022-11-27T18:10:45.538Z,93.12
2022-11-27T18:14:09.357Z,93.04
2022-11-27T18:17:30.921Z,93.10
2022-11-27T18:20:53.178Z,93.06
2022-11-27T18:24:23.964Z,93.21
2022-11-27T18:27:46.904Z,93.09
2022-11-27T18:31:12.663Z,92.93
2022-11-27T18:34:34.573Z,92.99
2022-11-27T18:37:56.631Z,93.28
2022-11-27T18:41:21.133Z,93.20
2022-11-27T18:44:45.168Z,93.28
2022-11-27T18:48:09.604Z,93.34
2022-11-27T18:51:31.820Z,93.36
2022-11-27T18:54:53.617Z,93.44
2022-11-27T18:58:15.680Z,93.59
2022-11-27T19:01:42.242Z,93.44
2022-11-27T19:05:07.529Z,93.76
2022-11-27T19:08:30.419Z,93.85
2022-11-27T19:11:53.137Z,93.84
2022-11-27T19:15:15.075Z,93.89
2022-11-27T19:18:37.775Z,94.49
2022-11-27T19:22:01.130Z,94.08
2022-11-27T19:25:23.272Z,94.32
2022-11-27T19:28:45.962Z,94.13
2022-11-27T19:32:08.303Z,94.45
2022-11-27T19:35:34.341Z,94.62
2022-11-27T19:38:59.820Z,94.60
2022-11-27T19:42:21.859Z,94.58
2022-11-27T19:45:44.238Z,94.49
2022-11-27T19:49:08.111Z,94.59
2022-11-27T19:52:30.325Z,94.67
2022-11-27T19:55:56.053Z,94.65
2022-11-27T19:59:22.742Z,94.71
2022-11-27T20:02:47.609Z,94.92
2022-11-27T20:06:12.013Z,94.84
2022-11-27T20:09:34.221Z,94.53
2022-11-27T20:13:01.189Z,94.66
2022-11-27T20:16:23.191Z,94.69
2022-11-27T20:19:45.304Z,94.62
2022-11-27T20:23:07.357Z,94.64
2022-11-27T20:26:41.292Z,94.76
2022-11-27T20:30:07.601Z,94.86
2022-11-27T20:33:30.115Z,94.80
2022-11-27T20:36:52.199Z,94.73
2022-11-27T20:40:14.378Z,94.72
2022-11-27T20:43:36.908Z,94.97
2022-11-27T20:47:00.365Z,94.73
2022-11-27T20:50:22.047Z,94.95
2022-11-27T20:53:46.003Z,94.91
2022-11-27T20:57:14.166Z,95.07
2022-11-27T21:00:36.110Z,95.15
2022-11-27T21:04:01.261Z,95.28
2022-11-27T21:07:22.865Z,95.21
2022-11-27T21:10:44.972Z,94.92
2022-11-27T21:14:08.954Z,94.92
2022-11-27T21:17:31.288Z,94.80
2022-11-27T21:20:54.628Z,95.07
2022-11-27T21:24:16.557Z,94.88
2022-11-27T21:27:38.507Z,94.98
2022-11-27T21:31:07.254Z,94.88
2022-11-27T21:34:29.164Z,94.99
2022-11-27T21:37:52.169Z,94.88
2022-11-27T21:41:14.481Z,94.98
2022-11-27T21:44:39.848Z,94.86
2022-11-27T21:48:02.178Z,95.15
2022-11-27T21:51:23.873Z,95.10
2022-11-27T21:54:46.825Z,94.91
2022-11-27T21:58:08.896Z,95.04
2022-11-27T22:01:30.724Z,94.58
2022-11-27T22:04:52.739Z,94.59
2022-11-27T22:11:55.497Z,94.53
2022-11-27T22:15:17.316Z,94.36
2022-11-27T22:18:39.373Z,94.34
2022-11-27T22:22:01.226Z,94.15
2022-11-27T22:25:22.862Z,94.04
2022-11-27T22:28:52.195Z,94.39
2022-11-27T22:32:13.963Z,94.18
2022-11-27T22:35:35.604Z,94.21
2022-11-27T22:38:57.932Z,94.46
2022-11-27T22:42:20.051Z,94.36
2022-11-27T22:45:47.984Z,94.52
2022-11-27T22:49:12.676Z,94.53
2022-11-27T22:52:34.702Z,94.59
2022-11-27T22:55:57.120Z,94.74
2022-11-27T22:59:34.806Z,94.88
2022-11-27T23:02:58.657Z,94.88
2022-11-27T23:06:22.954Z,94.85
2022-11-27T23:09:44.533Z,94.99
2022-11-27T23:13:06.536Z,94.94
2022-11-27T23:16:28.572Z,94.85
2022-11-27T23:19:52.011Z,94.86
2022-11-27T23:23:13.798Z,94.61
2022-11-27T23:26:37.537Z,94.76
2022-11-27T23:29:59.802Z,94.67
2022-11-27T23:33:21.987Z,94.67
2022-11-27T23:36:45.427Z,94.50
2022-11-27T23:40:08.769Z,94.59
2022-11-27T23:43:30.738Z,94.98
2022-11-27T23:46:52.584Z,94.85
2022-11-27T23:50:14.233Z,94.88
2022-11-27T23:53:38.456Z,94.90
2022-11-27T23:57:00.431Z,95.00
